createdAt,value
2022-12-31T00:01:14.906Z,91.47
2022-12-31T00:03:43.427Z,91.80
2022-12-31T00:06:32.310Z,91.67
2022-12-31T00:09:02.069Z,92.45
2022-12-31T00:11:30.831Z,91.60
2022-12-31T00:13:58.872Z,91.76
2022-12-31T00:16:29.836Z,91.71
2022-12-31T00:18:59.241Z,91.74
2022-12-31T00:21:28.831Z,91.17
2022-12-31T00:23:56.735Z,91.77
2022-12-31T00:26:26.833Z,91.58
2022-12-31T00:28:56.150Z,91.26
2022-12-31T00:31:29.005Z,92.44
2022-12-31T00:33:57.715Z,92.43
2022-12-31T00:36:31.180Z,91.89
2022-12-31T00:39:00.465Z,91.88
2022-12-31T00:41:29.040Z,91.28
2022-12-31T00:43:57.115Z,92.28
2022-12-31T00:46:25.504Z,92.97
2022-12-31T00:48:53.235Z,92.66
2022-12-31T00:51:23.066Z,93.37
2022-12-31T00:53:51.020Z,93.96
2022-12-31T00:56:21.080Z,94.21
2022-12-31T00:58:49.264Z,93.30
2022-12-31T01:01:23.132Z,93.37
2022-12-31T01:03:53.017Z,92.76
2022-12-31T01:06:21.466Z,93.52
2022-12-31T01:08:49.891Z,93.37
2022-12-31T01:11:17.994Z,93.25
2022-12-31T01:13:50.984Z,94.01
2022-12-31T01:16:32.585Z,93.14
2022-12-31T01:19:02.648Z,93.45
2022-12-31T01:21:30.441Z,92.88
2022-12-31T01:23:59.085Z,93.59
2022-12-31T01:26:28.042Z,93.40
2022-12-31T01:28:55.970Z,93.41
2022-12-31T01:31:24.481Z,93.35
2022-12-31T01:33:52.988Z,93.15
2022-12-31T01:36:26.809Z,93.84
2022-12-31T01:39:03.600Z,94.76
2022-12-31T01:41:34.683Z,94.58
2022-12-31T01:44:11.423Z,94.29
2022-12-31T01:46:44.186Z,94.13
2022-12-31T01:49:21.291Z,94.61
2022-12-31T01:51:52.516Z,93.52
2022-12-31T01:54:20.445Z,95.01
2022-12-31T01:56:48.507Z,95.21
2022-12-31T01:59:17.772Z,94.49
2022-12-31T02:01:45.816Z,93.86
2022-12-31T02:04:14.376Z,93.97
2022-12-31T02:06:45.939Z,93.57
2022-12-31T02:09:14.005Z,93.72
2022-12-31T02:11:41.743Z,93.46
2022-12-31T02:14:31.799Z,94.22
2022-12-31T02:17:11.575Z,93.65
2022-12-31T02:20:04.296Z,94.24
2022-12-31T02:22:51.270Z,93.73
2022-12-31T02:25:40.446Z,93.61
2022-12-31T02:28:20.093Z,93.54
2022-12-31T02:30:56.233Z,92.87
2022-12-31T02:33:30.729Z,92.81
2022-12-31T02:36:02.412Z,92.81
2022-12-31T02:38:33.838Z,93.05
2022-12-31T02:41:03.134Z,92.45
2022-12-31T02:43:31.932Z,92.76
2022-12-31T02:46:21.525Z,92.41
2022-12-31T02:48:54.226Z,92.74
2022-12-31T02:51:44.247Z,92.93
2022-12-31T02:54:41.448Z,93.43
2022-12-31T02:57:49.565Z,93.00
2022-12-31T03:00:17.981Z,93.20
2022-12-31T03:02:47.006Z,93.08
2022-12-31T03:05:16.208Z,92.89
2022-12-31T03:07:44.760Z,94.04
2022-12-31T03:10:12.419Z,93.20
2022-12-31T03:12:41.823Z,93.41
2022-12-31T03:15:10.784Z,93.17
2022-12-31T03:17:38.709Z,92.99
2022-12-31T03:20:06.959Z,92.50
2022-12-31T03:22:37.629Z,93.62
2022-12-31T03:25:11.380Z,93.46
2022-12-31T03:27:39.485Z,93.40
2022-12-31T03:30:07.780Z,93.82
2022-12-31T03:32:35.575Z,93.76
2022-12-31T03:35:04.279Z,93.24
2022-12-31T03:37:31.989Z,94.20
2022-12-31T03:40:00.570Z,93.65
2022-12-31T03:42:28.517Z,93.48
2022-12-31T03:44:56.081Z,93.72
2022-12-31T03:47:23.847Z,94.36
2022-12-31T03:49:51.813Z,93.60
2022-12-31T03:52:19.693Z,93.12
2022-12-31T03:54:47.375Z,93.54
2022-12-31T03:57:15.681Z,93.66
2022-12-31T03:59:43.516Z,94.77
2022-12-31T04:02:11.541Z,94.16
2022-12-31T04:04:39.544Z,93.95
2022-12-31T04:07:07.293Z,93.55
2022-12-31T04:09:34.957Z,94.37
2022-12-31T04:12:03.162Z,94.51
2022-12-31T04:14:30.829Z,94.29
2022-12-31T04:16:58.536Z,94.09
2022-12-31T04:19:26.403Z,95.10
2022-12-31T04:21:53.997Z,94.74
2022-12-31T04:24:21.697Z,93.87
2022-12-31T04:26:49.913Z,93.75
2022-12-31T04:29:17.750Z,94.45
2022-12-31T04:31:46.621Z,94.72
2022-12-31T04:34:14.612Z,95.13
2022-12-31T04:36:42.227Z,95.00
2022-12-31T04:39:10.094Z,94.46
2022-12-31T04:41:38.053Z,94.55
2022-12-31T04:44:05.778Z,94.85
2022-12-31T04:46:33.874Z,94.64
2022-12-31T04:49:02.019Z,94.21
2022-12-31T04:51:30.616Z,94.66
2022-12-31T04:53:58.520Z,95.52
2022-12-31T04:56:27.587Z,96.05
2022-12-31T04:58:55.698Z,96.07
2022-12-31T05:01:23.716Z,95.38
2022-12-31T05:03:51.706Z,95.60
2022-12-31T05:06:21.276Z,96.19
2022-12-31T05:08:49.493Z,96.10
2022-12-31T05:11:17.992Z,95.91
2022-12-31T05:13:45.689Z,96.06
2022-12-31T05:16:13.486Z,95.50
2022-12-31T05:18:41.537Z,95.79
2022-12-31T05:21:10.419Z,95.67
2022-12-31T05:23:38.471Z,95.45
2022-12-31T05:26:06.443Z,94.90
2022-12-31T05:28:34.126Z,95.33
2022-12-31T05:31:02.126Z,95.23
2022-12-31T05:33:30.208Z,95.11
2022-12-31T05:35:57.862Z,95.18
2022-12-31T05:38:26.026Z,95.25
2022-12-31T05:41:04.773Z,95.68
2022-12-31T05:43:32.527Z,95.47
2022-12-31T05:46:01.939Z,95.39
2022-12-31T05:48:30.251Z,95.35
2022-12-31T05:50:58.167Z,95.41
2022-12-31T05:53:26.038Z,95.52
2022-12-31T05:55:53.713Z,95.21
2022-12-31T05:58:21.396Z,95.57
2022-12-31T06:00:49.355Z,95.38
2022-12-31T06:03:17.804Z,95.53
2022-12-31T06:05:45.481Z,95.57
2022-12-31T06:08:13.201Z,95.07
2022-12-31T06:10:41.126Z,95.13
2022-12-31T06:13:08.740Z,94.83
2022-12-31T06:15:38.440Z,94.48
2022-12-31T06:18:07.159Z,94.12
2022-12-31T06:20:37.896Z,94.06
2022-12-31T06:23:06.102Z,94.42
2022-12-31T06:25:35.341Z,93.89
2022-12-31T06:28:04.790Z,93.61
2022-12-31T06:30:32.918Z,93.37
2022-12-31T06:33:00.608Z,93.75
2022-12-31T06:35:28.295Z,93.66
2022-12-31T06:37:56.566Z,93.64
2022-12-31T06:40:24.507Z,93.47
2022-12-31T06:42:57.770Z,93.36
2022-12-31T06:45:27.830Z,93.42
2022-12-31T06:47:55.538Z,93.03
2022-12-31T06:50:23.206Z,93.30
2022-12-31T06:52:51.128Z,93.18
2022-12-31T06:55:19.256Z,92.93
2022-12-31T06:57:47.265Z,93.11
2022-12-31T07:00:16.259Z,93.62
2022-12-31T07:03:08.727Z,93.30
2022-12-31T07:05:57.538Z,92.99
2022-12-31T07:09:00.364Z,92.86
2022-12-31T07:11:32.469Z,93.77
2022-12-31T07:14:18.880Z,93.68
2022-12-31T07:17:33.230Z,93.48
2022-12-31T07:20:06.566Z,94.46
2022-12-31T07:22:36.516Z,93.61
2022-12-31T07:25:05.226Z,93.44
2022-12-31T07:27:38.932Z,93.15
2022-12-31T07:30:13.937Z,92.78
2022-12-31T07:33:02.688Z,92.72
2022-12-31T07:35:42.776Z,92.77
2022-12-31T07:38:34.758Z,93.07
2022-12-31T07:41:29.108Z,92.93
2022-12-31T07:44:23.529Z,92.44
2022-12-31T07:47:00.444Z,92.70
2022-12-31T07:49:29.808Z,92.76
2022-12-31T07:51:58.178Z,93.00
2022-12-31T07:54:25.891Z,93.23
2022-12-31T07:56:53.478Z,93.05
2022-12-31T07:59:51.775Z,93.54
2022-12-31T08:02:58.569Z,93.90
2022-12-31T08:05:34.140Z,93.36
2022-12-31T08:08:22.616Z,92.67
2022-12-31T08:10:53.455Z,92.35
2022-12-31T08:13:21.148Z,92.71
2022-12-31T08:15:50.300Z,92.32
2022-12-31T08:18:18.731Z,92.69
2022-12-31T08:21:12.482Z,92.45
2022-12-31T08:24:00.459Z,92.82
2022-12-31T08:26:27.981Z,93.83
2022-12-31T08:29:15.036Z,93.38
2022-12-31T08:32:24.270Z,94.01
2022-12-31T08:34:59.233Z,93.62
2022-12-31T08:37:44.616Z,92.09
2022-12-31T08:40:24.519Z,92.15
2022-12-31T08:43:13.405Z,92.59
2022-12-31T08:45:52.168Z,92.45
2022-12-31T08:48:34.667Z,92.77
2022-12-31T08:51:03.178Z,91.22
2022-12-31T08:53:33.153Z,90.52
2022-12-31T08:56:07.208Z,93.10
2022-12-31T08:58:39.200Z,93.73
2022-12-31T09:01:08.013Z,94.05
2022-12-31T09:04:07.960Z,93.76
2022-12-31T09:06:48.400Z,94.08
2022-12-31T09:09:34.641Z,95.58
2022-12-31T09:12:16.232Z,93.44
2022-12-31T09:14:45.127Z,94.75
2022-12-31T09:17:24.903Z,95.83
2022-12-31T09:19:53.230Z,93.97
2022-12-31T09:22:20.998Z,93.11
2022-12-31T09:24:48.974Z,93.56
2022-12-31T09:27:38.321Z,91.10
2022-12-31T09:30:09.985Z,90.81
2022-12-31T09:33:05.911Z,89.50
2022-12-31T09:35:35.599Z,90.29
2022-12-31T09:38:12.169Z,89.16
2022-12-31T09:40:45.835Z,91.15
2022-12-31T09:43:33.897Z,89.94
2022-12-31T09:46:19.089Z,90.58
2022-12-31T09:49:19.455Z,89.46
2022-12-31T09:51:56.061Z,90.81
2022-12-31T09:54:30.228Z,91.64
2022-12-31T09:57:07.251Z,91.13
2022-12-31T09:59:41.313Z,91.87
2022-12-31T10:02:46.758Z,91.91
2022-12-31T10:05:26.708Z,92.00
2022-12-31T10:08:27.009Z,90.26
2022-12-31T10:10:58.711Z,92.10
2022-12-31T10:13:41.395Z,90.70
2022-12-31T10:16:20.608Z,91.31
2022-12-31T10:18:54.331Z,91.10
2022-12-31T10:21:51.897Z,89.05
2022-12-31T10:24:38.386Z,87.78
2022-12-31T10:27:19.703Z,87.53
2022-12-31T10:30:13.315Z,88.21
2022-12-31T10:32:58.701Z,88.27
2022-12-31T10:35:31.599Z,88.51
2022-12-31T10:38:28.865Z,89.93
2022-12-31T10:41:08.917Z,87.06
2022-12-31T10:43:51.515Z,90.37
2022-12-31T10:46:53.901Z,89.13
2022-12-31T10:49:46.244Z,89.52
2022-12-31T10:52:27.588Z,90.32
2022-12-31T10:55:34.966Z,91.37
2022-12-31T10:58:40.261Z,89.02
2022-12-31T11:01:26.412Z,89.82
2022-12-31T11:04:02.993Z,90.80
2022-12-31T11:06:46.090Z,90.40
2022-12-31T11:09:42.909Z,91.96
2022-12-31T11:12:38.473Z,91.38
2022-12-31T11:15:36.050Z,90.58
2022-12-31T11:18:30.577Z,91.65
2022-12-31T11:21:02.769Z,90.65
2022-12-31T11:23:58.162Z,91.92
2022-12-31T11:26:47.526Z,89.84
2022-12-31T11:29:40.120Z,90.65
2022-12-31T11:32:28.299Z,91.42
2022-12-31T11:35:20.871Z,91.74
2022-12-31T11:38:19.001Z,91.18
2022-12-31T11:40:56.723Z,91.47
2022-12-31T11:44:03.361Z,91.05
2022-12-31T11:46:34.280Z,91.21
2022-12-31T11:49:23.345Z,92.12
2022-12-31T11:52:09.065Z,92.39
2022-12-31T11:54:53.495Z,90.68
2022-12-31T11:57:34.518Z,89.97
2022-12-31T12:00:06.753Z,90.32
2022-12-31T12:02:45.977Z,90.06
2022-12-31T12:05:15.798Z,89.26
2022-12-31T12:07:45.298Z,88.29
2022-12-31T12:10:36.137Z,89.20
2022-12-31T12:13:16.655Z,88.73
2022-12-31T12:15:50.978Z,88.68
2022-12-31T12:18:48.449Z,87.81
2022-12-31T12:21:18.369Z,87.38
2022-12-31T12:24:14.511Z,86.72
2022-12-31T12:26:43.958Z,88.44
2022-12-31T12:29:14.559Z,87.14
2022-12-31T12:31:42.734Z,86.33
2022-12-31T12:45:16.940Z,83.09
2022-12-31T12:47:46.759Z,83.09
2022-12-31T12:50:17.412Z,83.97
2022-12-31T12:52:59.559Z,84.50
2022-12-31T12:55:41.959Z,84.34
2022-12-31T12:58:47.351Z,84.81
2022-12-31T13:01:33.516Z,85.01
2022-12-31T13:07:03.306Z,84.19
2022-12-31T13:09:52.775Z,85.33
2022-12-31T13:13:05.300Z,85.74
2022-12-31T13:15:44.154Z,85.78
2022-12-31T13:18:37.825Z,85.54
2022-12-31T13:21:14.318Z,86.07
2022-12-31T13:23:50.041Z,84.95
2022-12-31T13:26:26.273Z,85.76
2022-12-31T13:28:58.671Z,84.81
2022-12-31T13:31:40.269Z,84.46
2022-12-31T13:34:12.463Z,84.40
2022-12-31T13:36:44.384Z,83.48
2022-12-31T13:39:27.393Z,83.34
2022-12-31T13:42:07.601Z,81.69
2022-12-31T13:44:51.979Z,81.60
2022-12-31T13:47:33.108Z,82.60
2022-12-31T13:50:14.780Z,84.14
2022-12-31T13:53:03.315Z,83.92
2022-12-31T13:55:34.591Z,85.77
2022-12-31T13:58:21.002Z,85.71
2022-12-31T14:00:53.264Z,87.58
2022-12-31T14:03:51.999Z,86.62
2022-12-31T14:06:56.449Z,86.18
2022-12-31T14:09:29.502Z,85.75
2022-12-31T14:12:21.690Z,85.16
2022-12-31T14:15:05.211Z,85.31
2022-12-31T14:17:51.315Z,85.50
2022-12-31T14:20:22.012Z,84.63
2022-12-31T14:23:12.933Z,83.49
2022-12-31T14:25:50.570Z,83.46
2022-12-31T14:28:59.288Z,82.85
2022-12-31T14:31:48.676Z,83.28
2022-12-31T14:34:24.347Z,82.76
2022-12-31T14:36:57.655Z,83.30
2022-12-31T14:39:45.269Z,82.88
2022-12-31T14:42:22.044Z,82.82
2022-12-31T14:44:58.258Z,83.16
2022-12-31T14:47:41.134Z,83.43
2022-12-31T14:50:10.237Z,84.02
2022-12-31T14:52:48.977Z,84.41
2022-12-31T14:55:28.172Z,84.60
2022-12-31T15:00:55.937Z,84.58
2022-12-31T15:03:31.546Z,84.69
2022-12-31T15:06:17.315Z,85.28
2022-12-31T15:09:08.454Z,84.66
2022-12-31T15:11:47.862Z,85.37
2022-12-31T15:14:18.228Z,85.51
2022-12-31T15:16:48.264Z,85.75
2022-12-31T15:19:18.913Z,85.80
2022-12-31T15:21:52.691Z,85.31
2022-12-31T15:24:23.894Z,85.67
2022-12-31T15:26:54.012Z,86.12
2022-12-31T15:29:33.460Z,85.97
2022-12-31T15:32:04.171Z,86.60
2022-12-31T15:34:34.592Z,86.73
2022-12-31T15:37:07.129Z,87.68
2022-12-31T15:39:34.523Z,87.10
2022-12-31T15:44:53.497Z,86.61
2022-12-31T15:47:34.681Z,86.53
2022-12-31T15:50:03.729Z,86.71
2022-12-31T15:52:39.176Z,87.57
2022-12-31T15:55:07.040Z,85.62
2022-12-31T15:57:39.206Z,84.02
2022-12-31T16:00:14.528Z,83.93
2022-12-31T16:02:42.192Z,83.85
2022-12-31T16:05:25.241Z,83.80
2022-12-31T16:07:54.498Z,84.30
2022-12-31T16:10:25.649Z,83.97
2022-12-31T16:12:56.474Z,84.24
2022-12-31T16:15:34.126Z,84.50
2022-12-31T16:18:09.434Z,86.20
2022-12-31T16:20:42.224Z,87.79
2022-12-31T16:23:26.555Z,88.37
2022-12-31T16:25:56.281Z,87.93
2022-12-31T16:28:28.379Z,87.48
2022-12-31T16:31:03.137Z,87.90
2022-12-31T16:33:32.306Z,88.05
2022-12-31T16:36:03.891Z,88.22
2022-12-31T16:38:37.800Z,89.61
2022-12-31T16:41:17.433Z,89.99
2022-12-31T16:43:46.869Z,90.76
2022-12-31T16:46:29.025Z,89.71
2022-12-31T16:49:05.323Z,89.28
2022-12-31T16:51:34.149Z,88.40
2022-12-31T16:54:02.434Z,89.06
2022-12-31T16:56:37.761Z,89.04
2022-12-31T16:59:27.216Z,89.59
2022-12-31T17:01:59.785Z,89.65
2022-12-31T17:04:27.584Z,88.93
2022-12-31T17:06:54.822Z,89.61
2022-12-31T17:09:31.670Z,89.95
2022-12-31T17:12:15.158Z,90.22
2022-12-31T17:14:50.175Z,90.69
2022-12-31T17:17:25.919Z,90.42
2022-12-31T17:19:58.068Z,90.30
2022-12-31T17:22:34.368Z,88.72
2022-12-31T17:25:06.743Z,88.92
2022-12-31T17:27:37.929Z,90.03
2022-12-31T17:30:28.717Z,89.29
2022-12-31T17:33:03.435Z,90.25
2022-12-31T17:35:33.372Z,90.63
2022-12-31T17:38:30.984Z,90.96
2022-12-31T17:41:09.427Z,90.91
2022-12-31T17:43:37.963Z,91.25
2022-12-31T17:46:14.337Z,91.12
2022-12-31T17:48:42.985Z,91.72
2022-12-31T17:51:10.201Z,91.85
2022-12-31T17:53:37.454Z,91.59
2022-12-31T17:56:06.828Z,91.32
2022-12-31T17:58:53.384Z,91.66
2022-12-31T18:01:22.840Z,91.64
2022-12-31T18:03:50.475Z,91.64
2022-12-31T18:06:17.985Z,91.68
2022-12-31T18:08:45.260Z,91.62
2022-12-31T18:11:18.926Z,91.54
2022-12-31T18:13:46.368Z,92.03
2022-12-31T18:16:14.081Z,91.91
2022-12-31T18:18:41.463Z,91.69
2022-12-31T18:21:22.024Z,91.98
2022-12-31T18:23:50.385Z,92.20
2022-12-31T18:26:20.058Z,91.92
2022-12-31T18:28:48.898Z,91.92
2022-12-31T18:31:22.471Z,92.84
2022-12-31T18:33:51.323Z,93.17
2022-12-31T18:36:20.483Z,93.71
2022-12-31T18:38:48.289Z,93.49
2022-12-31T18:41:20.478Z,92.54
2022-12-31T18:43:48.594Z,92.45
2022-12-31T18:46:18.347Z,93.15
2022-12-31T18:48:48.994Z,93.28
2022-12-31T18:51:18.964Z,92.46
2022-12-31T18:53:46.227Z,92.58
2022-12-31T18:56:16.418Z,92.72
2022-12-31T18:58:44.696Z,92.60
2022-12-31T19:01:26.758Z,92.72
2022-12-31T19:04:10.668Z,92.93
2022-12-31T19:06:41.252Z,92.77
2022-12-31T19:09:30.412Z,92.92
2022-12-31T19:11:56.498Z,92.70
2022-12-31T19:14:24.752Z,93.16
2022-12-31T19:16:53.532Z,92.99
2022-12-31T19:19:20.934Z,93.12
2022-12-31T19:21:48.940Z,92.36
2022-12-31T19:24:19.086Z,92.79
2022-12-31T19:26:46.685Z,92.57
2022-12-31T19:29:17.049Z,92.52
2022-12-31T19:31:44.835Z,92.62
2022-12-31T19:34:12.288Z,92.51
2022-12-31T19:36:44.027Z,92.52
2022-12-31T19:39:17.223Z,92.57
2022-12-31T19:41:45.519Z,92.53
2022-12-31T19:44:17.026Z,92.25
2022-12-31T19:46:45.253Z,92.35
2022-12-31T19:49:13.476Z,91.92
2022-12-31T19:51:41.062Z,91.94
2022-12-31T19:54:08.635Z,91.85
2022-12-31T19:56:35.882Z,91.88
2022-12-31T19:59:07.675Z,91.60
2022-12-31T20:01:35.238Z,91.71
2022-12-31T20:04:02.948Z,91.84
2022-12-31T20:06:31.080Z,91.83
2022-12-31T20:08:59.336Z,91.56
2022-12-31T20:11:27.537Z,91.91
2022-12-31T20:13:55.261Z,91.51
2022-12-31T20:16:24.678Z,91.91
2022-12-31T20:18:52.793Z,92.08
2022-12-31T20:21:23.148Z,92.37
2022-12-31T20:23:52.999Z,91.81
2022-12-31T20:26:22.396Z,92.20
2022-12-31T20:28:50.334Z,92.04
2022-12-31T20:31:21.355Z,91.53
2022-12-31T20:33:48.994Z,91.78
2022-12-31T20:36:17.425Z,92.17
2022-12-31T20:38:45.889Z,92.22
2022-12-31T20:41:16.338Z,91.99
2022-12-31T20:43:44.564Z,92.53
2022-12-31T20:46:20.513Z,92.42
2022-12-31T20:48:49.721Z,92.47
2022-12-31T20:51:18.656Z,92.43
2022-12-31T20:53:47.979Z,92.50
2022-12-31T20:56:16.355Z,93.07
2022-12-31T20:58:45.827Z,93.11
2022-12-31T21:01:18.661Z,92.68
2022-12-31T21:04:05.766Z,93.60
2022-12-31T21:06:35.467Z,94.00
2022-12-31T21:09:06.182Z,93.91
2022-12-31T21:11:34.508Z,93.81
2022-12-31T21:14:02.360Z,93.84
2022-12-31T21:16:33.082Z,93.45
2022-12-31T21:19:00.687Z,93.13
2022-12-31T21:21:28.529Z,94.29
2022-12-31T21:23:58.605Z,94.62
2022-12-31T21:26:26.274Z,94.90
2022-12-31T21:28:54.204Z,94.02
2022-12-31T21:31:22.609Z,92.92
2022-12-31T21:33:50.205Z,93.06
2022-12-31T21:36:17.774Z,93.17
2022-12-31T21:38:45.634Z,92.96
2022-12-31T21:41:16.685Z,93.35
2022-12-31T21:43:44.711Z,93.28
2022-12-31T21:46:12.660Z,93.03
2022-12-31T21:48:40.529Z,93.05
2022-12-31T21:51:11.853Z,93.26
2022-12-31T21:53:40.667Z,93.38
2022-12-31T21:56:09.354Z,93.25
2022-12-31T21:58:39.029Z,93.31
2022-12-31T22:01:15.544Z,93.46
2022-12-31T22:03:44.728Z,93.61
2022-12-31T22:06:15.454Z,93.63
2022-12-31T22:08:44.898Z,93.12
2022-12-31T22:11:13.500Z,93.03
2022-12-31T22:13:41.692Z,93.34
2022-12-31T22:16:09.748Z,93.01
2022-12-31T22:18:39.196Z,92.70
2022-12-31T22:21:10.784Z,92.55
2022-12-31T22:23:41.973Z,93.71
2022-12-31T22:26:12.860Z,93.78
2022-12-31T22:28:42.564Z,93.67
2022-12-31T22:31:14.463Z,93.55
2022-12-31T22:33:43.037Z,93.10
2022-12-31T22:36:15.256Z,93.54
2022-12-31T22:38:43.530Z,93.29
2022-12-31T22:41:19.654Z,93.50
2022-12-31T22:43:49.398Z,94.21
2022-12-31T22:46:21.075Z,93.46
2022-12-31T22:48:49.130Z,93.65
2022-12-31T22:51:17.732Z,93.71
2022-12-31T22:53:45.814Z,93.47
2022-12-31T22:56:16.095Z,93.82
2022-12-31T22:58:44.811Z,93.16
2022-12-31T23:01:18.809Z,93.34
2022-12-31T23:03:47.090Z,92.92
2022-12-31T23:06:15.019Z,92.81
2022-12-31T23:08:42.774Z,92.73
2022-12-31T23:11:10.771Z,92.98
2022-12-31T23:13:45.912Z,92.85
2022-12-31T23:16:18.359Z,93.44
2022-12-31T23:18:46.197Z,93.52
2022-12-31T23:21:13.978Z,93.71
2022-12-31T23:23:47.113Z,93.96
2022-12-31T23:26:14.695Z,93.86
2022-12-31T23:28:42.593Z,93.49
2022-12-31T23:31:10.525Z,93.31
2022-12-31T23:33:38.580Z,92.74
2022-12-31T23:36:07.258Z,92.96
2022-12-31T23:38:35.029Z,93.12
2022-12-31T23:41:15.167Z,94.28
2022-12-31T23:43:43.090Z,94.25
2022-12-31T23:46:11.839Z,93.73
2022-12-31T23:48:39.825Z,93.98
2022-12-31T23:51:07.671Z,94.61
2022-12-31T23:53:37.784Z,95.27
2022-12-31T23:56:23.013Z,94.06
2022-12-31T23:58:55.843Z,94.96
